Terminal Aerodrome Forecast
Issued by NWS

Home | Current Version | Previous Version | Text Only | Print | Product List | Glossary On
Versions: 1 2 3 4 5 6 7 8 9 10 11 12 13 14 15 16 17 18 19 20 21 22 23 24 25 26 27 28 29 30 31 32 33 34 35 36 37 38 39 40 41 42 43 44 45 46 47
000
FTUS43 KSGF 222320
TAFBBG
TAF
KBBG 222320Z 2300/2324 17008G12KT P6SM SKC
     FM231200 26005KT 6SM -SHRA VCTS OVC035CB
     FM231400 33007KT 6SM -SHRA BR OVC011
     FM231600 33009KT P6SM OVC009 PROB30 2316/2319 4SM -SHRA BR
      OVC005
     FM231900 34011G19KT P6SM OVC010 PROB30 2319/2321 4SM -SHRA BR
      OVC009=

USA.gov is the U.S. government's official web portal to all federal, state and local government web resources and services.